Time;durP1;ratioP1;P1;durP2;ratioP2;P2;SDS_P1;SDS_P2;PMS_P1;PMS_P2;Temp;Humidity;BMP_temperature;BMP_pressure;BME280_temperature;BME280_humidity;BME280_pressure;Samples;Min_cycle;Max_cycle;Signal;HPM_P1;HPM_P2
2023/07/05 00:00:34;;;;;;;13.90;7.45;;;14.30;99.90;;;;;;4987395;28;20433;-91
2023/07/05 00:03:00;;;;;;;13.48;8.50;;;13.80;99.90;;;;;;4971661;28;20767;-93
2023/07/05 00:05:26;;;;;;;13.80;8.32;;;14.10;99.90;;;;;;4970905;28;20414;-92
2023/07/05 00:07:52;;;;;;;14.27;8.80;;;13.90;99.90;;;;;;4971962;28;20473;-92
2023/07/05 00:10:18;;;;;;;14.75;9.30;;;14.00;99.90;;;;;;4971004;28;20970;-93
2023/07/05 00:12:44;;;;;;;15.98;9.35;;;13.80;99.90;;;;;;4972288;28;20772;-90
2023/07/05 00:15:10;;;;;;;15.00;9.70;;;14.10;99.90;;;;;;4970798;28;20411;-93
2023/07/05 00:17:36;;;;;;;14.40;8.70;;;13.90;99.90;;;;;;4971373;28;20417;-92
2023/07/05 00:20:05;;;;;;;15.43;9.10;;;14.10;99.90;;;;;;4983995;28;20430;-93
2023/07/05 00:22:31;;;;;;;16.42;9.75;;;13.90;99.90;;;;;;4969990;28;20402;-91
2023/07/05 00:24:56;;;;;;;15.05;9.77;;;14.10;99.90;;;;;;4969303;28;20414;-91
2023/07/05 00:27:24;;;;;;;17.15;10.43;;;13.90;99.90;;;;;;4970597;28;20407;-92
2023/07/05 00:29:50;;;;;;;12.63;9.07;;;14.10;99.90;;;;;;4971773;28;20411;-88
2023/07/05 00:32:16;;;;;;;15.97;9.57;;;14.20;99.90;;;;;;4970206;28;20450;-90
2023/07/05 00:34:42;;;;;;;16.38;10.52;;;14.20;99.90;;;;;;4971178;28;20571;-89
2023/07/05 00:37:08;;;;;;;18.25;10.77;;;14.10;99.90;;;;;;4970922;28;20430;-92
2023/07/05 00:39:33;;;;;;;15.47;11.10;;;14.00;99.90;;;;;;4970612;28;20438;-91
2023/07/05 00:41:59;;;;;;;15.87;11.07;;;14.10;99.90;;;;;;4971243;28;20489;-91
2023/07/05 00:44:26;;;;;;;16.85;11.32;;;14.20;99.90;;;;;;4970541;28;20410;-93
2023/07/05 00:46:59;;;;;;;16.73;10.90;;;14.30;99.90;;;;;;4987277;28;20399;-90
2023/07/05 00:49:27;;;;;;;17.53;11.17;;;14.10;99.90;;;;;;4970579;28;20752;-90
2023/07/05 00:52:00;;;;;;;14.35;10.13;;;14.30;99.90;;;;;;4987424;28;20476;-92
2023/07/05 00:54:35;;;;;;;14.88;10.60;;;14.20;99.90;;;;;;4971138;28;20423;-90
2023/07/05 00:57:28;;;;;;;14.35;10.63;;;14.20;99.90;;;;;;4970491;28;20406;-93
2023/07/05 01:00:14;;;;;;;14.65;9.95;;;14.20;99.90;;;;;;4971223;28;20445;-90
2023/07/05 01:02:42;;;;;;;16.63;10.48;;;14.30;99.90;;;;;;4970194;28;20430;-92
2023/07/05 01:05:11;;;;;;;19.05;9.90;;;14.50;99.90;;;;;;4970584;28;20418;-90
2023/07/05 01:07:37;;;;;;;15.48;10.60;;;14.30;99.90;;;;;;4970882;28;20906;-91
2023/07/05 01:10:04;;;;;;;14.75;10.40;;;14.40;99.90;;;;;;4970183;28;20417;-91
2023/07/05 01:12:44;;;;;;;14.70;10.30;;;14.30;99.90;;;;;;4970514;28;20508;-92
2023/07/05 01:15:18;;;;;;;15.38;10.77;;;14.30;99.90;;;;;;4969706;28;20505;-91
2023/07/05 01:17:56;;;;;;;15.18;10.60;;;14.60;99.90;;;;;;4986984;28;20425;-91
2023/07/05 01:20:28;;;;;;;15.40;10.18;;;14.40;99.90;;;;;;4970529;28;20434;-91
2023/07/05 01:23:28;;;;;;;14.82;9.55;;;14.40;99.90;;;;;;4970366;28;20761;-93
2023/07/05 01:26:35;;;;;;;16.42;10.25;;;14.40;99.90;;;;;;4970496;28;20477;-90
2023/07/05 01:29:19;;;;;;;15.13;10.50;;;14.00;99.90;;;;;;4970349;28;20418;-93
2023/07/05 01:32:19;;;;;;;17.25;11.07;;;14.40;99.90;;;;;;4969901;28;20829;-93
2023/07/05 01:34:45;;;;;;;15.90;11.32;;;14.40;99.90;;;;;;4970449;28;20546;-92
2023/07/05 01:37:42;;;;;;;15.70;10.30;;;14.60;99.90;;;;;;4985937;28;20446;-92
2023/07/05 01:40:21;;;;;;;17.17;11.90;;;14.40;99.90;;;;;;4968778;28;20450;-92
2023/07/05 01:42:57;;;;;;;19.20;11.90;;;14.30;99.90;;;;;;4969743;28;20775;-93
2023/07/05 01:45:34;;;;;;;17.33;13.23;;;14.30;99.90;;;;;;4985912;28;20414;-92
2023/07/05 01:48:18;;;;;;;21.53;14.93;;;14.30;99.90;;;;;;4970739;28;20473;-93
2023/07/05 01:50:54;;;;;;;19.45;13.00;;;14.40;99.90;;;;;;4969491;28;20422;-93
2023/07/05 01:53:32;;;;;;;18.83;13.30;;;14.20;99.90;;;;;;4969577;28;20490;-92
2023/07/05 01:56:03;;;;;;;20.83;14.48;;;14.10;99.90;;;;;;4970182;28;20908;-93
2023/07/05 01:58:35;;;;;;;23.27;16.40;;;14.10;99.90;;;;;;4969401;28;20772;-94
2023/07/05 02:01:05;;;;;;;26.90;17.97;;;14.00;99.90;;;;;;4970067;28;20447;-93
2023/07/05 02:03:33;;;;;;;23.48;16.95;;;13.70;99.90;;;;;;4969094;28;20411;-92
2023/07/05 02:05:59;;;;;;;23.33;16.52;;;14.00;99.90;;;;;;4969211;28;20415;-93
2023/07/05 02:08:27;;;;;;;22.43;16.53;;;14.20;99.90;;;;;;4969875;28;20418;-93
2023/07/05 02:10:56;;;;;;;23.10;17.95;;;14.20;99.90;;;;;;4968831;28;20458;-94
2023/07/05 02:13:22;;;;;;;23.08;17.25;;;14.00;99.90;;;;;;4969931;28;20410;-95
2023/07/05 02:15:51;;;;;;;22.00;16.50;;;14.10;99.90;;;;;;4969146;28;20415;-93
2023/07/05 02:18:17;;;;;;;21.83;17.00;;;14.20;99.90;;;;;;4970058;28;20414;-93
2023/07/05 02:20:42;;;;;;;25.48;17.58;;;14.00;99.90;;;;;;4968205;28;20415;-93
2023/07/05 02:23:08;;;;;;;27.07;19.47;;;14.10;99.90;;;;;;4970359;28;20978;-93
2023/07/05 02:25:35;;;;;;;22.35;18.00;;;14.10;99.90;;;;;;4969262;28;20418;-93
2023/07/05 02:28:11;;;;;;;22.50;18.02;;;14.20;99.90;;;;;;4969392;28;20405;-91
2023/07/05 02:30:45;;;;;;;27.27;18.13;;;14.30;99.90;;;;;;4969246;28;20402;-93
2023/07/05 02:33:11;;;;;;;26.08;19.15;;;14.10;99.90;;;;;;4968505;28;20410;-93
2023/07/05 02:35:38;;;;;;;23.88;18.45;;;14.40;99.90;;;;;;4968265;28;20413;-92
2023/07/05 02:38:05;;;;;;;25.98;18.85;;;14.40;99.90;;;;;;4967361;28;20438;-91
2023/07/05 02:40:31;;;;;;;22.95;17.90;;;14.10;99.90;;;;;;4968174;28;20870;-93
2023/07/05 02:42:59;;;;;;;25.15;17.80;;;14.60;99.90;;;;;;4968386;28;20485;-94
2023/07/05 02:45:28;;;;;;;25.73;19.98;;;14.40;99.90;;;;;;4970060;28;20402;-93
2023/07/05 02:47:55;;;;;;;25.63;20.17;;;14.10;99.90;;;;;;4985395;28;20419;-93
2023/07/05 02:50:20;;;;;;;26.15;20.27;;;14.40;99.90;;;;;;4969568;28;20485;-92
2023/07/05 02:52:46;;;;;;;23.00;18.60;;;14.20;99.90;;;;;;4970075;28;20411;-92
2023/07/05 02:55:14;;;;;;;25.63;19.77;;;14.20;99.90;;;;;;4971715;28;20415;-92
2023/07/05 02:57:40;;;;;;;27.17;20.80;;;14.40;99.90;;;;;;4973146;28;20411;-93
2023/07/05 03:00:06;;;;;;;25.93;20.17;;;14.30;99.90;;;;;;4971850;28;20953;-92
2023/07/05 03:02:35;;;;;;;24.93;20.90;;;14.20;99.90;;;;;;4973158;28;20414;-93
2023/07/05 03:05:11;;;;;;;37.38;27.40;;;14.40;99.90;;;;;;4972796;28;20907;-92
2023/07/05 03:07:37;;;;;;;35.58;25.63;;;14.20;99.90;;;;;;4973602;28;20418;-92
2023/07/05 03:10:04;;;;;;;39.25;27.42;;;14.10;99.90;;;;;;4972891;28;20934;-94
2023/07/05 03:12:30;;;;;;;36.35;26.70;;;14.10;99.90;;;;;;4973164;28;20980;-93
2023/07/05 03:14:58;;;;;;;36.33;26.43;;;14.00;99.90;;;;;;4972685;28;20414;-93
2023/07/05 03:17:23;;;;;;;31.10;24.33;;;14.00;99.90;;;;;;4971991;28;20472;-93
2023/07/05 03:19:52;;;;;;;44.47;31.27;;;14.00;99.90;;;;;;4972159;28;21014;-92
2023/07/05 03:22:18;;;;;;;31.35;26.10;;;14.20;99.90;;;;;;4972049;28;20405;-93
2023/07/05 03:24:49;;;;;;;32.53;25.90;;;14.80;99.90;;;;;;4972960;28;20474;-94
2023/07/05 03:27:14;;;;;;;34.20;27.23;;;14.10;99.90;;;;;;4974796;28;20506;-96
2023/07/05 03:29:40;;;;;;;39.27;29.67;;;14.20;99.90;;;;;;4975138;28;20509;-95
2023/07/05 03:32:07;;;;;;;36.63;28.00;;;14.10;99.90;;;;;;4976258;28;20497;-95
2023/07/05 03:34:32;;;;;;;42.60;29.37;;;14.10;99.90;;;;;;4972858;28;20438;-95
2023/07/05 03:36:58;;;;;;;38.90;28.40;;;14.40;99.90;;;;;;4973253;28;20502;-93
2023/07/05 03:39:24;;;;;;;36.97;26.90;;;14.10;99.90;;;;;;4972331;28;20481;-95
2023/07/05 03:41:49;;;;;;;40.10;29.00;;;14.20;99.90;;;;;;4972355;28;20773;-94
2023/07/05 03:44:15;;;;;;;34.83;26.80;;;14.50;99.90;;;;;;4971798;28;20414;-95
2023/07/05 03:46:42;;;;;;;42.53;29.43;;;14.30;99.90;;;;;;4972730;28;20815;-94
2023/07/05 03:49:08;;;;;;;37.53;28.30;;;14.40;99.90;;;;;;4971925;28;20415;-94
2023/07/05 03:51:34;;;;;;;35.77;27.33;;;14.30;99.90;;;;;;4974190;28;20406;-95
2023/07/05 03:54:03;;;;;;;29.08;23.08;;;14.20;99.90;;;;;;4974145;28;20421;-94
2023/07/05 03:56:29;;;;;;;33.50;27.10;;;14.20;99.90;;;;;;4971114;28;20419;-92
2023/07/05 03:58:54;;;;;;;32.97;26.67;;;14.40;99.90;;;;;;4971485;28;20729;-93
2023/07/05 04:01:25;;;;;;;37.13;28.10;;;14.40;99.90;;;;;;4970967;28;20517;-94
2023/07/05 04:03:54;;;;;;;31.88;25.92;;;14.40;99.90;;;;;;4971261;28;20565;-93
2023/07/05 04:06:21;;;;;;;33.80;27.48;;;14.60;99.90;;;;;;4971489;28;20503;-93
2023/07/05 04:08:55;;;;;;;34.90;25.50;;;14.60;99.90;;;;;;4971846;28;20476;-93
2023/07/05 04:11:21;;;;;;;25.33;22.33;;;14.50;99.90;;;;;;4971030;28;20409;-93
2023/07/05 04:13:51;;;;;;;24.35;21.75;;;14.50;99.90;;;;;;4970620;28;20510;-92
2023/07/05 04:16:19;;;;;;;28.98;24.27;;;14.70;99.90;;;;;;4987612;28;20442;-92
2023/07/05 04:18:49;;;;;;;29.50;24.67;;;14.80;99.90;;;;;;4970961;28;20435;-93
2023/07/05 04:21:15;;;;;;;26.17;23.42;;;14.70;99.90;;;;;;4971765;28;20493;-92
2023/07/05 04:23:41;;;;;;;26.98;23.52;;;14.60;99.90;;;;;;4970662;28;20433;-92
2023/07/05 04:26:14;;;;;;;27.77;24.40;;;14.80;99.90;;;;;;4971766;28;20430;-92
2023/07/05 04:28:41;;;;;;;26.20;22.75;;;14.70;99.90;;;;;;4971132;28;20470;-94
2023/07/05 04:31:09;;;;;;;30.17;25.52;;;14.80;99.90;;;;;;4970976;28;20410;-92
2023/07/05 04:33:35;;;;;;;26.80;22.70;;;14.80;99.90;;;;;;4971444;28;20411;-93
2023/07/05 04:36:02;;;;;;;20.20;18.02;;;15.00;99.90;;;;;;4970674;28;20839;-93
2023/07/05 04:38:28;;;;;;;20.30;16.27;;;14.80;99.90;;;;;;4971404;28;20407;-93
2023/07/05 04:40:55;;;;;;;20.58;17.63;;;15.00;99.90;;;;;;4970129;28;20490;-93
2023/07/05 04:43:21;;;;;;;20.35;17.42;;;14.90;99.90;;;;;;4971627;28;20461;-93
2023/07/05 04:45:51;;;;;;;18.77;15.30;;;14.80;99.90;;;;;;4970588;28;20846;-93
2023/07/05 04:48:17;;;;;;;11.73;10.40;;;15.10;99.90;;;;;;4971678;28;20882;-92
2023/07/05 04:50:43;;;;;;;13.40;10.57;;;14.90;99.90;;;;;;4970790;28;20460;-93
2023/07/05 04:53:09;;;;;;;12.07;8.13;;;15.00;99.90;;;;;;4970188;28;20436;-93
2023/07/05 04:55:34;;;;;;;9.07;6.78;;;14.90;99.90;;;;;;4971739;28;20410;-94
2023/07/05 04:58:03;;;;;;;6.63;4.77;;;14.90;99.90;;;;;;4971124;28;20403;-92
2023/07/05 05:00:29;;;;;;;9.55;6.10;;;14.60;99.90;;;;;;4971394;28;20439;-91
2023/07/05 05:02:55;;;;;;;8.95;5.38;;;14.70;99.90;;;;;;4969864;28;20422;-92
2023/07/05 05:05:20;;;;;;;8.30;5.55;;;14.40;99.90;;;;;;4971577;28;20428;-93
2023/07/05 05:07:46;;;;;;;6.97;5.70;;;14.50;99.90;;;;;;4970568;28;20414;-91
2023/07/05 05:10:12;;;;;;;9.48;5.45;;;14.50;99.90;;;;;;4970793;28;20421;-91
2023/07/05 05:12:37;;;;;;;7.40;5.70;;;14.70;99.90;;;;;;4970854;28;20409;-93
2023/07/05 05:15:03;;;;;;;8.55;4.55;;;14.60;99.90;;;;;;4969700;28;20490;-93
2023/07/05 05:17:29;;;;;;;6.20;4.68;;;14.60;99.90;;;;;;4986402;28;20476;-92
2023/07/05 05:19:55;;;;;;;6.00;4.23;;;14.70;99.90;;;;;;4968831;28;20437;-94
2023/07/05 05:22:22;;;;;;;7.10;4.68;;;15.00;99.90;;;;;;4965740;28;20455;-92
2023/07/05 05:24:47;;;;;;;6.05;4.65;;;14.80;99.90;;;;;;4965755;28;20483;-91
2023/07/05 05:27:20;;;;;;;8.17;4.67;;;14.80;99.90;;;;;;4974834;28;20410;-94
2023/07/05 05:29:46;;;;;;;6.70;4.53;;;14.80;99.90;;;;;;4970124;28;20932;-94
2023/07/05 05:32:12;;;;;;;6.82;4.30;;;15.20;99.90;;;;;;4971758;28;20417;-93
2023/07/05 05:34:37;;;;;;;6.93;4.80;;;14.80;99.90;;;;;;4988949;28;20898;-94
2023/07/05 05:37:03;;;;;;;7.20;5.10;;;15.10;99.90;;;;;;4988601;28;20452;-93
2023/07/05 05:39:29;;;;;;;6.57;4.43;;;14.90;99.90;;;;;;4973319;28;20960;-92
2023/07/05 05:41:55;;;;;;;7.10;5.20;;;14.90;99.90;;;;;;4971583;28;20404;-90
2023/07/05 05:44:20;;;;;;;6.32;4.60;;;15.10;99.90;;;;;;4973347;28;20495;-92
2023/07/05 05:46:46;;;;;;;5.68;4.45;;;15.10;99.90;;;;;;4989423;28;20405;-93
2023/07/05 05:49:12;;;;;;;5.50;4.90;;;15.10;99.90;;;;;;4973271;28;20928;-92
2023/07/05 05:51:37;;;;;;;6.15;4.70;;;15.00;99.90;;;;;;4989519;28;20421;-90
2023/07/05 05:54:03;;;;;;;7.90;4.90;;;15.00;99.90;;;;;;4989377;28;20424;-91
2023/07/05 05:56:29;;;;;;;6.95;4.65;;;15.00;99.90;;;;;;4989145;28;20507;-92
2023/07/05 05:58:54;;;;;;;6.37;5.43;;;15.10;99.90;;;;;;4988817;28;20432;-91
2023/07/05 06:01:20;;;;;;;6.63;4.70;;;15.10;99.90;;;;;;4973161;28;20770;-92
2023/07/05 06:03:47;;;;;;;6.07;4.85;;;15.40;99.90;;;;;;4988811;28;20961;-91
2023/07/05 06:06:12;;;;;;;6.75;4.88;;;15.30;99.90;;;;;;4989183;28;20412;-91
2023/07/05 06:08:38;;;;;;;6.38;4.63;;;15.10;99.90;;;;;;4989181;28;20408;-91
2023/07/05 06:11:04;;;;;;;5.87;4.50;;;14.80;99.90;;;;;;4972916;28;20440;-89
2023/07/05 06:13:31;;;;;;;5.60;4.38;;;15.40;99.90;;;;;;4988815;28;20409;-92
2023/07/05 06:15:59;;;;;;;6.50;4.45;;;15.10;99.90;;;;;;4972310;28;20416;-90
2023/07/05 06:18:26;;;;;;;6.47;4.30;;;14.80;99.90;;;;;;4989052;28;20479;-90
2023/07/05 06:20:52;;;;;;;5.68;4.40;;;15.10;99.90;;;;;;4972225;28;20440;-90
2023/07/05 06:23:17;;;;;;;6.40;4.40;;;15.20;99.90;;;;;;4973534;28;21274;-92
2023/07/05 06:25:47;;;;;;;6.15;4.05;;;15.30;99.90;;;;;;4988469;28;20564;-93
2023/07/05 06:28:17;;;;;;;5.18;3.90;;;15.00;99.90;;;;;;4988959;28;20419;-92
2023/07/05 06:30:46;;;;;;;5.10;3.97;;;15.20;99.90;;;;;;4976234;28;20809;-90
2023/07/05 06:33:14;;;;;;;7.13;3.88;;;15.60;99.90;;;;;;4976133;28;20436;-91
2023/07/05 06:35:40;;;;;;;4.97;4.00;;;15.80;99.90;;;;;;4976501;28;20885;-91
2023/07/05 06:38:06;;;;;;;5.30;3.80;;;15.90;99.90;;;;;;4976404;28;20488;-92
2023/07/05 06:40:32;;;;;;;6.20;3.80;;;15.80;99.90;;;;;;4993331;28;20527;-90
2023/07/05 06:42:58;;;;;;;5.50;3.30;;;15.90;99.90;;;;;;4993312;28;20424;-91
2023/07/05 06:45:24;;;;;;;3.67;3.17;;;16.00;99.90;;;;;;4976689;28;20496;-92
2023/07/05 06:47:50;;;;;;;4.20;2.97;;;16.30;99.90;;;;;;4993105;28;21016;-91
2023/07/05 06:50:16;;;;;;;3.97;2.30;;;16.40;99.90;;;;;;4975637;28;20415;-91
2023/07/05 06:52:41;;;;;;;4.13;2.20;;;16.10;99.90;;;;;;4992754;28;20451;-90
2023/07/05 06:55:07;;;;;;;4.63;2.58;;;16.30;99.90;;;;;;4992342;28;21004;-89
2023/07/05 06:57:33;;;;;;;4.60;2.58;;;16.00;99.90;;;;;;4992425;28;20401;-89
2023/07/05 06:59:59;;;;;;;4.07;2.40;;;16.00;99.90;;;;;;4991671;28;20428;-89
2023/07/05 07:02:25;;;;;;;4.88;2.05;;;16.60;99.90;;;;;;4992965;28;20405;-91
2023/07/05 07:04:51;;;;;;;4.77;1.70;;;16.50;99.90;;;;;;4992152;28;20416;-90
2023/07/05 07:07:17;;;;;;;3.33;1.48;;;16.70;99.90;;;;;;4992620;28;21028;-88
2023/07/05 07:09:42;;;;;;;3.00;1.30;;;17.10;99.90;;;;;;4992817;28;20920;-91
2023/07/05 07:12:09;;;;;;;2.45;1.10;;;17.10;99.90;;;;;;4971911;28;20437;-92
2023/07/05 07:14:35;;;;;;;4.47;1.80;;;17.20;99.90;;;;;;4972979;28;20838;-90
2023/07/05 07:17:03;;;;;;;4.32;1.70;;;17.20;99.90;;;;;;4971860;28;22237;-91
2023/07/05 07:19:28;;;;;;;3.92;1.75;;;17.10;99.90;;;;;;4989233;28;20516;-91
2023/07/05 07:21:54;;;;;;;4.17;1.83;;;16.80;99.90;;;;;;4972546;28;20458;-90
2023/07/05 07:24:20;;;;;;;4.22;2.15;;;16.80;99.90;;;;;;4972827;28;20407;-90
2023/07/05 07:26:45;;;;;;;5.00;2.40;;;16.40;99.90;;;;;;4972852;28;20422;-89
2023/07/05 07:29:11;;;;;;;5.68;2.63;;;16.20;99.90;;;;;;4988468;28;20942;-89
2023/07/05 07:31:37;;;;;;;5.32;2.17;;;16.00;99.90;;;;;;4972960;28;20391;-91
2023/07/05 07:34:05;;;;;;;2.50;1.40;;;16.00;99.90;;;;;;4972139;28;20807;-89
2023/07/05 07:36:32;;;;;;;3.67;1.60;;;15.70;99.90;;;;;;4972764;28;20439;-91
2023/07/05 07:38:58;;;;;;;4.13;1.42;;;15.20;99.90;;;;;;4988504;28;20428;-92
2023/07/05 07:41:33;;;;;;;2.63;1.07;;;14.90;99.90;;;;;;4973093;28;20420;-92
2023/07/05 07:44:01;;;;;;;2.28;0.70;;;14.50;99.90;;;;;;4975756;28;20496;-93
2023/07/05 07:46:28;;;;;;;11.70;0.90;;;14.30;99.90;;;;;;4974798;28;20401;-92
2023/07/05 07:48:57;;;;;;;3.15;0.60;;;13.90;99.90;;;;;;4971445;28;20420;-91
2023/07/05 07:51:25;;;;;;;4.10;1.02;;;13.20;99.90;;;;;;4972493;28;20528;-93
2023/07/05 07:53:51;;;;;;;2.80;1.03;;;12.90;99.90;;;;;;4975960;28;20580;-92
2023/07/05 07:56:18;;;;;;;4.63;1.30;;;12.80;99.90;;;;;;4990828;28;20930;-92
2023/07/05 07:58:48;;;;;;;2.03;0.80;;;12.90;99.90;;;;;;4975764;28;20424;-92
2023/07/05 08:01:18;;;;;;;2.47;0.40;;;12.60;99.90;;;;;;4973507;28;20409;-91
2023/07/05 08:03:45;;;;;;;2.35;0.30;;;12.20;99.90;;;;;;4974266;28;20423;-90
2023/07/05 08:06:11;;;;;;;2.85;0.40;;;12.20;99.90;;;;;;4974887;28;20475;-93
2023/07/05 08:08:38;;;;;;;2.40;0.32;;;12.10;99.90;;;;;;4974215;28;20413;-94
2023/07/05 08:11:08;;;;;;;1.40;0.30;;;12.30;99.90;;;;;;4975794;28;20408;-93
2023/07/05 08:13:35;;;;;;;2.78;0.50;;;12.10;99.90;;;;;;4974260;28;20499;-91
2023/07/05 08:16:01;;;;;;;1.98;0.40;;;12.10;99.90;;;;;;4992105;28;20503;-92
2023/07/05 08:18:28;;;;;;;2.00;0.50;;;12.10;99.90;;;;;;4974450;28;20522;-92
2023/07/05 08:20:54;;;;;;;1.70;0.50;;;11.90;99.90;;;;;;4975059;28;20990;-93
2023/07/05 08:23:20;;;;;;;2.60;0.30;;;12.00;99.90;;;;;;4974772;28;20401;-93
2023/07/05 08:25:54;;;;;;;2.47;0.43;;;11.80;99.90;;;;;;4975428;28;20409;-94
2023/07/05 08:28:21;;;;;;;1.80;0.40;;;11.80;99.90;;;;;;4974641;28;20408;-92
2023/07/05 08:30:53;;;;;;;3.60;0.70;;;11.50;99.90;;;;;;4974749;28;20409;-93
2023/07/05 08:33:21;;;;;;;2.30;0.40;;;11.60;99.90;;;;;;4990436;28;20428;-93
2023/07/05 08:35:49;;;;;;;2.13;0.25;;;12.00;99.90;;;;;;4990265;28;20400;-93
2023/07/05 08:38:18;;;;;;;2.45;0.40;;;12.00;99.90;;;;;;4975228;28;20439;-94
2023/07/05 08:41:00;;;;;;;3.10;0.30;;;12.10;99.90;;;;;;4975555;28;20436;-93
2023/07/05 08:43:40;;;;;;;3.67;0.50;;;11.90;99.90;;;;;;4976403;28;20401;-93
2023/07/05 08:46:13;;;;;;;2.90;0.50;;;11.80;99.90;;;;;;4977149;28;20453;-93
2023/07/05 08:48:41;;;;;;;3.30;0.55;;;12.30;99.90;;;;;;4976354;28;20400;-93
2023/07/05 08:51:09;;;;;;;4.37;0.70;;;11.80;99.90;;;;;;4975335;28;20435;-92
2023/07/05 08:53:47;;;;;;;5.35;0.80;;;12.30;99.90;;;;;;4964859;28;20507;-94
2023/07/05 08:56:38;;;;;;;7.57;1.83;;;11.70;99.90;;;;;;4953735;28;20420;-94
2023/07/05 08:59:10;;;;;;;6.10;1.58;;;11.90;99.90;;;;;;4952205;28;20440;-93
2023/07/05 09:01:40;;;;;;;9.57;1.77;;;12.00;99.90;;;;;;4953889;28;20447;-93
2023/07/05 09:04:24;;;;;;;8.70;1.70;;;12.50;99.90;;;;;;4952753;28;20515;-92
2023/07/05 09:07:14;;;;;;;9.48;1.70;;;12.30;99.90;;;;;;4952195;28;20416;-92
2023/07/05 09:09:55;;;;;;;8.93;1.27;;;12.50;99.90;;;;;;4968709;28;20420;-92
2023/07/05 09:12:36;;;;;;;7.03;0.82;;;12.60;99.90;;;;;;4967562;28;20964;-92
2023/07/05 09:15:25;;;;;;;11.10;1.33;;;12.80;99.90;;;;;;4968574;28;20432;-92
2023/07/05 09:18:21;;;;;;;15.32;4.20;;;13.00;99.90;;;;;;4951396;28;20817;-91
2023/07/05 09:20:53;;;;;;;20.42;6.38;;;13.40;99.90;;;;;;4951047;28;20494;-94
2023/07/05 09:23:47;;;;;;;13.48;5.80;;;13.70;99.90;;;;;;4976167;28;20831;-94
2023/07/05 09:26:29;;;;;;;10.27;2.85;;;14.10;99.90;;;;;;4989863;28;20414;-93
2023/07/05 09:29:22;;;;;;;4.80;1.20;;;14.30;99.90;;;;;;4974519;28;20418;-93
2023/07/05 09:31:50;;;;;;;4.78;1.30;;;14.70;99.90;;;;;;4959173;28;20562;-92
2023/07/05 09:34:30;;;;;;;5.67;1.90;;;15.00;99.90;;;;;;4970633;28;20446;-93
2023/07/05 09:36:57;;;;;;;6.32;1.67;;;15.10;99.90;;;;;;4970268;28;20406;-95
2023/07/05 09:39:53;;;;;;;7.65;1.52;;;15.20;99.90;;;;;;4969367;28;20438;-92
2023/07/05 09:42:32;;;;;;;5.75;1.10;;;14.90;99.90;;;;;;4970140;28;20501;-93
2023/07/05 09:44:58;;;;;;;5.20;1.30;;;14.70;99.90;;;;;;4986787;28;20419;-92
2023/07/05 09:47:32;;;;;;;5.40;1.10;;;14.50;99.90;;;;;;4972664;28;20461;-93
2023/07/05 09:49:58;;;;;;;4.07;0.80;;;14.30;99.90;;;;;;4988560;28;20418;-94
2023/07/05 09:52:30;;;;;;;3.53;0.50;;;14.20;99.90;;;;;;4974254;28;20410;-92
2023/07/05 09:55:20;;;;;;;2.50;0.30;;;14.10;99.90;;;;;;4988621;28;20422;-94
2023/07/05 09:57:47;;;;;;;2.00;0.30;;;14.40;99.90;;;;;;4965826;28;20430;-94
2023/07/05 10:00:36;;;;;;;1.40;0.22;;;14.60;99.90;;;;;;4989082;28;20426;-93
2023/07/05 10:03:21;;;;;;;1.48;0.20;;;14.70;99.90;;;;;;4971332;28;20436;-94
2023/07/05 10:05:57;;;;;;;1.98;0.20;;;14.90;99.90;;;;;;4989880;28;20753;-94
2023/07/05 10:08:27;;;;;;;2.15;0.10;;;14.90;99.90;;;;;;4988867;28;20437;-93
2023/07/05 10:10:53;;;;;;;0.93;0.10;;;15.40;99.90;;;;;;4988421;28;20429;-92
2023/07/05 10:13:24;;;;;;;4.13;0.30;;;15.30;99.90;;;;;;4970242;28;20426;-92
2023/07/05 10:15:51;;;;;;;3.40;0.20;;;14.90;99.90;;;;;;4970939;28;20885;-93
2023/07/05 10:18:37;;;;;;;2.72;0.20;;;14.90;99.90;;;;;;4969227;28;20641;-93
2023/07/05 10:21:19;;;;;;;3.17;0.10;;;14.40;99.90;;;;;;4986501;28;20663;-94
2023/07/05 10:23:48;;;;;;;2.17;0.10;;;14.60;99.90;;;;;;4969894;28;20513;-93
2023/07/05 10:26:17;;;;;;;2.57;0.20;;;14.90;99.90;;;;;;4986219;28;20775;-92
2023/07/05 10:29:18;;;;;;;;;;;;;;;;;;;;;
2023/07/05 10:31:54;;;;;;;2.85;0.20;;;15.20;99.90;;;;;;4986430;28;20462;-93
2023/07/05 10:34:23;;;;;;;2.72;0.20;;;15.40;99.90;;;;;;4986975;28;20827;-92
2023/07/05 10:36:49;;;;;;;1.75;0.20;;;15.50;99.90;;;;;;4985746;28;20457;-93
2023/07/05 10:39:27;;;;;;;6.15;0.50;;;15.50;99.90;;;;;;4985766;28;20470;-92
2023/07/05 10:41:57;;;;;;;2.67;0.20;;;15.70;99.90;;;;;;4969932;28;20465;-93
2023/07/05 10:44:34;;;;;;;3.15;0.20;;;16.10;99.90;;;;;;4968850;28;20464;-90
2023/07/05 10:47:04;;;;;;;2.13;0.20;;;16.00;99.90;;;;;;4987186;28;20445;-93
2023/07/05 10:49:32;;;;;;;3.17;0.20;;;16.10;99.90;;;;;;4985486;28;20836;-92
2023/07/05 10:52:05;;;;;;;3.40;0.20;;;16.40;99.90;;;;;;4969704;28;20422;-94
2023/07/05 10:54:41;;;;;;;2.90;0.20;;;16.30;99.90;;;;;;4985290;28;20937;-91
2023/07/05 10:57:22;;;;;;;1.65;0.20;;;16.70;99.90;;;;;;4969398;28;20419;-93
2023/07/05 11:00:17;;;;;;;2.30;0.20;;;17.30;99.90;;;;;;4969707;28;20427;-93
2023/07/05 11:02:55;;;;;;;2.53;0.20;;;17.80;99.90;;;;;;4956830;28;20434;-94
2023/07/05 11:05:29;;;;;;;2.05;0.20;;;18.40;99.90;;;;;;4969166;28;20419;-93
2023/07/05 11:07:59;;;;;;;4.03;0.30;;;18.50;99.90;;;;;;4985672;28;20980;-91
2023/07/05 11:10:27;;;;;;;2.53;0.20;;;18.70;99.90;;;;;;4985226;28;20418;-90
2023/07/05 11:12:53;;;;;;;1.98;0.35;;;19.00;99.90;;;;;;4986085;28;20438;-90
2023/07/05 11:15:21;;;;;;;2.83;0.35;;;19.30;99.90;;;;;;4985132;28;20418;-90
2023/07/05 11:17:48;;;;;;;2.53;0.30;;;19.50;99.90;;;;;;4989044;28;21178;-93
2023/07/05 11:20:44;;;;;;;3.55;0.30;;;19.20;99.90;;;;;;4971933;28;20438;-94
2023/07/05 11:23:11;;;;;;;4.10;0.35;;;18.90;99.90;;;;;;4989508;28;20411;-94
2023/07/05 11:25:52;;;;;;;5.68;0.60;;;18.60;99.90;;;;;;4989137;28;20406;-92
2023/07/05 11:28:30;;;;;;;4.63;0.50;;;18.40;99.90;;;;;;4971489;28;20938;-93
2023/07/05 11:30:56;;;;;;;4.75;0.40;;;18.90;99.90;;;;;;4972896;28;20433;-92
2023/07/05 11:33:22;;;;;;;2.90;0.50;;;18.60;99.90;;;;;;4987854;28;20469;-91
2023/07/05 11:35:57;;;;;;;4.15;0.47;;;18.40;99.90;;;;;;4989067;28;20477;-92
2023/07/05 11:38:35;;;;;;;4.28;0.35;;;18.50;99.90;;;;;;4988224;28;20981;-91
2023/07/05 11:41:06;;;;;;;5.55;0.65;;;18.60;99.90;;;;;;4972193;28;20436;-92
2023/07/05 11:43:36;;;;;;;5.07;0.40;;;18.60;99.90;;;;;;4972435;28;21275;-92
2023/07/05 11:46:03;;;;;;;5.88;0.43;;;18.60;99.90;;;;;;4987559;28;20888;-93
2023/07/05 11:48:38;;;;;;;7.55;0.90;;;18.60;99.90;;;;;;4985552;28;20422;-92
2023/07/05 11:51:19;;;;;;;12.25;1.40;;;17.80;99.90;;;;;;4970962;28;20414;-93
2023/07/05 11:53:46;;;;;;;11.15;1.98;;;17.40;99.90;;;;;;4953105;28;20434;-94
2023/07/05 11:56:14;;;;;;;13.20;2.08;;;16.80;99.90;;;;;;4953010;28;20408;-94
2023/07/05 11:58:42;;;;;;;13.45;1.98;;;16.40;99.90;;;;;;4961765;28;20414;-91
2023/07/05 12:01:15;;;;;;;12.43;1.75;;;16.20;99.90;;;;;;4971575;28;20415;-92
2023/07/05 12:03:48;;;;;;;13.20;2.17;;;16.00;99.90;;;;;;4971084;28;20430;-93
2023/07/05 12:06:23;;;;;;;10.10;1.70;;;16.20;99.90;;;;;;4972524;28;20415;-92
2023/07/05 12:09:00;;;;;;;11.45;2.10;;;15.50;99.90;;;;;;4972318;28;20464;-94
2023/07/05 12:11:34;;;;;;;13.95;2.20;;;15.10;99.90;;;;;;4971363;28;21017;-93
2023/07/05 12:14:05;;;;;;;14.07;2.80;;;14.90;99.90;;;;;;4988639;28;20423;-92
2023/07/05 12:16:35;;;;;;;14.25;2.75;;;14.60;99.90;;;;;;4973882;28;20415;-91
2023/07/05 12:19:07;;;;;;;16.17;2.90;;;14.30;99.90;;;;;;4973540;28;20442;-94
2023/07/05 12:21:34;;;;;;;11.43;2.00;;;14.10;99.90;;;;;;4988561;28;20417;-92
2023/07/05 12:24:07;;;;;;;12.10;1.75;;;13.90;99.90;;;;;;4973263;28;20462;-93
2023/07/05 12:26:43;;;;;;;11.90;1.92;;;13.80;99.90;;;;;;4972670;28;20414;-94
2023/07/05 12:29:28;;;;;;;13.90;1.65;;;13.80;99.90;;;;;;4972219;28;20407;-93
2023/07/05 12:32:02;;;;;;;10.90;1.90;;;13.70;99.90;;;;;;4972549;28;20433;-94
2023/07/05 12:34:37;;;;;;;8.52;1.30;;;13.70;99.90;;;;;;4971771;28;20418;-94
2023/07/05 12:37:03;;;;;;;9.80;1.85;;;13.80;99.90;;;;;;4972328;28;20422;-93
2023/07/05 12:39:31;;;;;;;8.70;1.65;;;13.80;99.90;;;;;;4990295;28;20441;-94
2023/07/05 12:42:12;;;;;;;8.73;1.50;;;13.50;99.90;;;;;;4972763;28;20576;-92
2023/07/05 12:44:39;;;;;;;8.53;1.63;;;13.60;99.90;;;;;;4979517;28;20411;-94
2023/07/05 12:47:15;;;;;;;9.60;1.40;;;13.40;99.90;;;;;;4974742;28;21295;-94
2023/07/05 12:49:44;;;;;;;11.38;1.80;;;13.40;99.90;;;;;;4974248;28;20399;-93
2023/07/05 12:52:21;;;;;;;11.38;1.80;;;13.30;99.90;;;;;;4990702;28;20414;-94
2023/07/05 12:54:48;;;;;;;14.55;2.55;;;13.40;99.90;;;;;;4973545;28;20453;-92
2023/07/05 12:57:29;;;;;;;14.20;2.88;;;13.40;99.90;;;;;;4974688;28;20456;-93